Ana Sayfa
METAR-TAF:

METAR-TAF

Havaalanları :

Wellington, Yeni Zelanda

Enlem: 41-20S, Boylam: 174-48E, yükseklik: 12 m

Güncel hava durumu gözlemi

Rapor saat 23:30 UTC de 33 dakika önce yapıldı.
Rüzgar kuzeydan 13 kt
Sıcaklık 18°C
Nem 68%
Basınç 1021 hPa
Görüş mesafesi 10 km veya daha fazla

METAR: NZWN 252330Z AUTO 01013KT 9999 NCD 18/12 Q1021 NOSIG

Saat: 12:03 (00:03 UTC)

Tahmin

Rapor saat 23:02 UTC de 1 saat ve 1 dakika önce yapıldı.
Ayın 26'si saat 00 UTC'den ayın 27'si saat 00 UTC'ye kadar geçerli Tahmin
Rüzgar kuzeydan 15 kt
Görüş mesafesi 10 km veya daha fazla
1500 m altında bulut yok ve kümülonimbus yok
Ayın 26'si saat 2000 UTC'den
Rüzgar kuzeydan 15 kt ve 25 kt'a kadar ani rüzgarlar
Görüş mesafesi 10 km veya daha fazla
1400 ft yükseklikte az bulutlu
3000 ft yükseklikte parçalı çok bulutlu
hafif sağanak yağmurlar

TAF: NZWN 252302Z 2600/2700 36015KT CAVOK FM262000 36015G25KT 9999 -SHRA FEW014 BKN030

4.000'den fazla havaalanı için hava durumu gözlemleri ve tahminleri (METAR ve TAF raporları).

Kullanılabilir istasyonlar harita üzerinde sarı ve kırmızı noktalarla gösterilir.

İstasyonun adını görmek için fareyi noktanın üzerinde gezdirin.

Sonrasında hava gözlem ve tahminlerini görmek için tıklayın.

Haritayı değiştirmek için: yaklaştırmak için siyah artı işaretli yeşil düğmeye ve uzaklaştırmak için de eksi işaretli düğmeye hızla tıklayın; bitişik haritalar için yeşil okları kullanın.


METAR-TAF: